sensor_id;sensor_type;location;lat;lon;timestamp;pressure;altitude;pressure_sealevel;temperature;humidity
47240;BME280;32978;53.586;10.052;2024-01-10T00:01:05;103546.56;;;-6.25;100.00
47240;BME280;32978;53.586;10.052;2024-01-10T00:06:02;103537.22;;;-6.19;100.00
47240;BME280;32978;53.586;10.052;2024-01-10T00:11:00;103531.97;;;-6.40;100.00
47240;BME280;32978;53.586;10.052;2024-01-10T00:15:57;103539.69;;;-6.37;100.00
47240;BME280;32978;53.586;10.052;2024-01-10T00:20:55;103528.75;;;-6.34;100.00
47240;BME280;32978;53.586;10.052;2024-01-10T00:25:51;103529.56;;;-6.43;100.00
47240;BME280;32978;53.586;10.052;2024-01-10T00:30:48;103531.06;;;-6.60;100.00
47240;BME280;32978;53.586;10.052;2024-01-10T00:35:45;103532.91;;;-6.51;100.00
47240;BME280;32978;53.586;10.052;2024-01-10T00:40:41;103542.28;;;-6.57;100.00
47240;BME280;32978;53.586;10.052;2024-01-10T00:45:38;103535.13;;;-6.56;100.00
47240;BME280;32978;53.586;10.052;2024-01-10T00:50:34;103537.41;;;-6.51;100.00
47240;BME280;32978;53.586;10.052;2024-01-10T00:55:31;103529.03;;;-6.37;100.00
47240;BME280;32978;53.586;10.052;2024-01-10T01:00:28;103544.75;;;-6.24;100.00
47240;BME280;32978;53.586;10.052;2024-01-10T01:05:24;103534.94;;;-6.24;100.00
47240;BME280;32978;53.586;10.052;2024-01-10T01:10:21;103540.72;;;-6.09;100.00
47240;BME280;32978;53.586;10.052;2024-01-10T01:15:17;103539.75;;;-5.98;100.00
47240;BME280;32978;53.586;10.052;2024-01-10T01:20:14;103543.53;;;-5.91;100.00
47240;BME280;32978;53.586;10.052;2024-01-10T01:25:11;103547.84;;;-5.80;100.00
47240;BME280;32978;53.586;10.052;2024-01-10T01:30:07;103534.25;;;-5.67;100.00
47240;BME280;32978;53.586;10.052;2024-01-10T01:35:04;103535.81;;;-5.65;100.00
47240;BME280;32978;53.586;10.052;2024-01-10T01:40:01;103534.38;;;-5.59;100.00
47240;BME280;32978;53.586;10.052;2024-01-10T01:44:57;103532.84;;;-5.72;100.00
47240;BME280;32978;53.586;10.052;2024-01-10T01:49:54;103526.56;;;-5.61;100.00
47240;BME280;32978;53.586;10.052;2024-01-10T01:54:51;103519.09;;;-5.57;100.00
47240;BME280;32978;53.586;10.052;2024-01-10T01:59:48;103514.34;;;-5.54;100.00
47240;BME280;32978;53.586;10.052;2024-01-10T02:04:46;103511.25;;;-5.59;100.00
47240;BME280;32978;53.586;10.052;2024-01-10T02:09:42;103524.28;;;-5.46;100.00
47240;BME280;32978;53.586;10.052;2024-01-10T02:14:39;103518.09;;;-5.37;100.00
47240;BME280;32978;53.586;10.052;2024-01-10T02:19:36;103521.22;;;-5.51;100.00
47240;BME280;32978;53.586;10.052;2024-01-10T02:24:32;103522.75;;;-5.48;100.00
47240;BME280;32978;53.586;10.052;2024-01-10T02:29:30;103511.41;;;-5.60;100.00
47240;BME280;32978;53.586;10.052;2024-01-10T02:34:26;103514.72;;;-5.39;100.00
47240;BME280;32978;53.586;10.052;2024-01-10T02:39:23;103512.22;;;-5.40;100.00
47240;BME280;32978;53.586;10.052;2024-01-10T02:44:20;103509.09;;;-5.26;100.00
47240;BME280;32978;53.586;10.052;2024-01-10T02:49:18;103499.56;;;-5.29;100.00
47240;BME280;32978;53.586;10.052;2024-01-10T02:54:14;103502.63;;;-5.23;100.00
47240;BME280;32978;53.586;10.052;2024-01-10T02:59:11;103504.03;;;-5.19;100.00
47240;BME280;32978;53.586;10.052;2024-01-10T03:04:08;103507.06;;;-5.04;100.00
47240;BME280;32978;53.586;10.052;2024-01-10T03:09:04;103509.00;;;-4.97;100.00
47240;BME280;32978;53.586;10.052;2024-01-10T03:14:02;103500.03;;;-4.96;100.00
47240;BME280;32978;53.586;10.052;2024-01-10T03:19:00;103493.94;;;-4.88;100.00
47240;BME280;32978;53.586;10.052;2024-01-10T03:23:58;103497.16;;;-4.84;100.00
47240;BME280;32978;53.586;10.052;2024-01-10T03:28:56;103499.75;;;-4.65;100.00
47240;BME280;32978;53.586;10.052;2024-01-10T03:33:52;103502.72;;;-4.68;100.00
47240;BME280;32978;53.586;10.052;2024-01-10T03:38:49;103491.47;;;-4.72;100.00
47240;BME280;32978;53.586;10.052;2024-01-10T03:43:46;103493.44;;;-4.64;100.00
47240;BME280;32978;53.586;10.052;2024-01-10T03:48:43;103479.66;;;-4.69;100.00
47240;BME280;32978;53.586;10.052;2024-01-10T03:53:47;103479.97;;;-4.72;100.00
47240;BME280;32978;53.586;10.052;2024-01-10T03:58:45;103484.81;;;-4.58;100.00
47240;BME280;32978;53.586;10.052;2024-01-10T04:03:44;103484.81;;;-4.58;100.00
47240;BME280;32978;53.586;10.052;2024-01-10T04:08:41;103489.44;;;-4.60;100.00
47240;BME280;32978;53.586;10.052;2024-01-10T04:13:37;103479.56;;;-4.50;100.00
47240;BME280;32978;53.586;10.052;2024-01-10T04:18:34;103489.63;;;-4.44;100.00
47240;BME280;32978;53.586;10.052;2024-01-10T04:23:31;103473.34;;;-4.40;100.00
47240;BME280;32978;53.586;10.052;2024-01-10T04:28:29;103477.91;;;-4.33;100.00
47240;BME280;32978;53.586;10.052;2024-01-10T04:33:26;103478.47;;;-4.29;100.00
47240;BME280;32978;53.586;10.052;2024-01-10T04:38:22;103482.81;;;-4.28;100.00
47240;BME280;32978;53.586;10.052;2024-01-10T04:43:22;103474.47;;;-4.25;100.00
47240;BME280;32978;53.586;10.052;2024-01-10T04:48:19;103466.47;;;-4.25;100.00
47240;BME280;32978;53.586;10.052;2024-01-10T04:53:15;103459.97;;;-4.23;100.00
47240;BME280;32978;53.586;10.052;2024-01-10T04:58:12;103466.78;;;-4.10;100.00
47240;BME280;32978;53.586;10.052;2024-01-10T05:03:09;103456.00;;;-4.00;100.00
47240;BME280;32978;53.586;10.052;2024-01-10T05:08:06;103453.72;;;-3.95;100.00
47240;BME280;32978;53.586;10.052;2024-01-10T05:13:02;103456.38;;;-3.95;100.00
47240;BME280;32978;53.586;10.052;2024-01-10T05:17:59;103447.16;;;-4.01;100.00
47240;BME280;32978;53.586;10.052;2024-01-10T05:22:55;103450.44;;;-3.89;100.00
47240;BME280;32978;53.586;10.052;2024-01-10T05:27:55;103447.91;;;-3.91;100.00
47240;BME280;32978;53.586;10.052;2024-01-10T05:32:51;103447.31;;;-3.85;100.00
47240;BME280;32978;53.586;10.052;2024-01-10T05:37:48;103457.53;;;-3.80;100.00
47240;BME280;32978;53.586;10.052;2024-01-10T05:42:44;103441.50;;;-3.80;100.00
47240;BME280;32978;53.586;10.052;2024-01-10T05:47:41;103431.66;;;-3.71;100.00
47240;BME280;32978;53.586;10.052;2024-01-10T05:52:37;103435.91;;;-3.69;100.00
47240;BME280;32978;53.586;10.052;2024-01-10T05:57:35;103440.47;;;-3.79;100.00
47240;BME280;32978;53.586;10.052;2024-01-10T06:02:31;103429.50;;;-3.76;100.00
47240;BME280;32978;53.586;10.052;2024-01-10T06:07:28;103439.44;;;-3.86;100.00
47240;BME280;32978;53.586;10.052;2024-01-10T06:12:24;103442.19;;;-3.78;100.00
47240;BME280;32978;53.586;10.052;2024-01-10T06:17:21;103431.47;;;-3.78;100.00
47240;BME280;32978;53.586;10.052;2024-01-10T06:22:18;103438.50;;;-3.77;100.00
47240;BME280;32978;53.586;10.052;2024-01-10T06:27:15;103437.34;;;-3.74;100.00
47240;BME280;32978;53.586;10.052;2024-01-10T06:32:11;103436.16;;;-3.54;100.00
47240;BME280;32978;53.586;10.052;2024-01-10T06:37:08;103426.97;;;-3.51;100.00
47240;BME280;32978;53.586;10.052;2024-01-10T06:42:05;103434.88;;;-3.68;100.00
47240;BME280;32978;53.586;10.052;2024-01-10T06:47:02;103435.63;;;-3.57;100.00
47240;BME280;32978;53.586;10.052;2024-01-10T06:52:00;103443.97;;;-3.61;100.00
47240;BME280;32978;53.586;10.052;2024-01-10T06:56:57;103445.34;;;-3.56;100.00
47240;BME280;32978;53.586;10.052;2024-01-10T07:01:53;103445.66;;;-3.60;100.00
47240;BME280;32978;53.586;10.052;2024-01-10T07:06:52;103438.84;;;-3.54;100.00
47240;BME280;32978;53.586;10.052;2024-01-10T07:11:49;103437.75;;;-3.43;100.00
47240;BME280;32978;53.586;10.052;2024-01-10T07:16:45;103440.72;;;-3.46;100.00
47240;BME280;32978;53.586;10.052;2024-01-10T07:21:43;103444.06;;;-3.70;100.00
47240;BME280;32978;53.586;10.052;2024-01-10T07:26:39;103436.31;;;-3.55;100.00
47240;BME280;32978;53.586;10.052;2024-01-10T07:31:37;103449.41;;;-3.44;100.00
47240;BME280;32978;53.586;10.052;2024-01-10T07:36:41;103440.59;;;-3.36;100.00
47240;BME280;32978;53.586;10.052;2024-01-10T07:41:38;103443.72;;;-3.49;100.00
47240;BME280;32978;53.586;10.052;2024-01-10T07:46:35;103444.41;;;-3.47;100.00
47240;BME280;32978;53.586;10.052;2024-01-10T07:51:34;103436.72;;;-3.42;100.00
47240;BME280;32978;53.586;10.052;2024-01-10T07:56:31;103441.47;;;-3.36;100.00
47240;BME280;32978;53.586;10.052;2024-01-10T08:01:27;103459.81;;;-3.41;100.00
47240;BME280;32978;53.586;10.052;2024-01-10T08:06:24;103462.75;;;-3.52;100.00
47240;BME280;32978;53.586;10.052;2024-01-10T08:11:28;103465.47;;;-3.44;100.00
47240;BME280;32978;53.586;10.052;2024-01-10T08:16:25;103466.53;;;-3.37;100.00
47240;BME280;32978;53.586;10.052;2024-01-10T08:21:21;103463.25;;;-3.23;100.00
47240;BME280;32978;53.586;10.052;2024-01-10T08:26:18;103466.00;;;-3.14;100.00
47240;BME280;32978;53.586;10.052;2024-01-10T08:31:17;103468.31;;;-3.20;100.00
47240;BME280;32978;53.586;10.052;2024-01-10T08:36:14;103463.94;;;-3.21;100.00
47240;BME280;32978;53.586;10.052;2024-01-10T08:41:13;103461.31;;;-3.12;100.00
47240;BME280;32978;53.586;10.052;2024-01-10T08:46:09;103463.03;;;-3.03;100.00
47240;BME280;32978;53.586;10.052;2024-01-10T08:51:06;103467.03;;;-3.07;100.00
47240;BME280;32978;53.586;10.052;2024-01-10T08:56:05;103470.13;;;-2.86;100.00
47240;BME280;32978;53.586;10.052;2024-01-10T09:01:05;103466.19;;;-2.73;100.00
47240;BME280;32978;53.586;10.052;2024-01-10T09:06:01;103465.19;;;-2.72;100.00
47240;BME280;32978;53.586;10.052;2024-01-10T09:11:06;103447.69;;;-2.93;100.00
47240;BME280;32978;53.586;10.052;2024-01-10T09:16:04;103448.72;;;-2.86;100.00
47240;BME280;32978;53.586;10.052;2024-01-10T09:21:00;103455.41;;;-2.90;100.00
47240;BME280;32978;53.586;10.052;2024-01-10T09:25:57;103443.06;;;-2.83;100.00
47240;BME280;32978;53.586;10.052;2024-01-10T09:30:53;103443.38;;;-2.86;100.00
47240;BME280;32978;53.586;10.052;2024-01-10T09:35:50;103437.03;;;-2.77;100.00
47240;BME280;32978;53.586;10.052;2024-01-10T09:40:47;103443.13;;;-2.66;100.00
47240;BME280;32978;53.586;10.052;2024-01-10T09:45:47;103439.44;;;-2.65;100.00
47240;BME280;32978;53.586;10.052;2024-01-10T09:50:46;103430.03;;;-2.78;100.00
47240;BME280;32978;53.586;10.052;2024-01-10T09:55:44;103430.66;;;-2.84;100.00
47240;BME280;32978;53.586;10.052;2024-01-10T10:00:42;103433.47;;;-2.43;100.00
47240;BME280;32978;53.586;10.052;2024-01-10T10:05:39;103445.88;;;-2.25;100.00
47240;BME280;32978;53.586;10.052;2024-01-10T10:10:38;103438.09;;;-2.53;100.00
47240;BME280;32978;53.586;10.052;2024-01-10T10:15:39;103443.84;;;-2.40;100.00
47240;BME280;32978;53.586;10.052;2024-01-10T10:20:36;103445.56;;;-2.81;100.00
47240;BME280;32978;53.586;10.052;2024-01-10T10:25:34;103443.84;;;-2.90;100.00
47240;BME280;32978;53.586;10.052;2024-01-10T10:30:32;103443.50;;;-2.45;100.00
47240;BME280;32978;53.586;10.052;2024-01-10T10:35:29;103440.88;;;-1.96;100.00
47240;BME280;32978;53.586;10.052;2024-01-10T10:40:36;103435.81;;;-1.50;100.00
47240;BME280;32978;53.586;10.052;2024-01-10T10:45:33;103446.19;;;-1.46;100.00
47240;BME280;32978;53.586;10.052;2024-01-10T10:50:34;103454.63;;;-1.99;100.00
47240;BME280;32978;53.586;10.052;2024-01-10T10:55:32;103444.56;;;-1.80;100.00
47240;BME280;32978;53.586;10.052;2024-01-10T11:00:31;103457.66;;;-1.69;100.00
47240;BME280;32978;53.586;10.052;2024-01-10T11:05:28;103459.00;;;-1.73;100.00
47240;BME280;32978;53.586;10.052;2024-01-10T11:10:31;103450.91;;;-1.65;100.00
47240;BME280;32978;53.586;10.052;2024-01-10T11:20:49;103446.59;;;-1.82;100.00
47240;BME280;32978;53.586;10.052;2024-01-10T11:25:51;103450.59;;;-2.19;100.00
47240;BME280;32978;53.586;10.052;2024-01-10T11:30:49;103446.22;;;-2.12;100.00
47240;BME280;32978;53.586;10.052;2024-01-10T11:41:10;103435.19;;;-1.93;100.00
47240;BME280;32978;53.586;10.052;2024-01-10T11:46:08;103434.16;;;-2.16;100.00
47240;BME280;32978;53.586;10.052;2024-01-10T11:51:04;103436.53;;;-1.88;100.00
47240;BME280;32978;53.586;10.052;2024-01-10T11:56:09;103435.53;;;-1.71;100.00
47240;BME280;32978;53.586;10.052;2024-01-10T12:01:07;103430.16;;;-2.04;100.00
47240;BME280;32978;53.586;10.052;2024-01-10T12:06:04;103426.31;;;-1.85;100.00
47240;BME280;32978;53.586;10.052;2024-01-10T12:11:01;103410.66;;;-1.49;100.00
47240;BME280;32978;53.586;10.052;2024-01-10T12:15:57;103409.81;;;-1.49;100.00
47240;BME280;32978;53.586;10.052;2024-01-10T12:20:54;103409.53;;;-1.62;100.00
47240;BME280;32978;53.586;10.052;2024-01-10T12:25:50;103407.03;;;-1.80;100.00
47240;BME280;32978;53.586;10.052;2024-01-10T12:30:47;103406.34;;;-1.74;100.00
47240;BME280;32978;53.586;10.052;2024-01-10T12:35:44;103400.97;;;-1.91;100.00
47240;BME280;32978;53.586;10.052;2024-01-10T12:40:42;103399.97;;;-1.98;100.00
47240;BME280;32978;53.586;10.052;2024-01-10T12:45:38;103397.00;;;-1.95;100.00
47240;BME280;32978;53.586;10.052;2024-01-10T12:50:35;103396.13;;;-1.87;100.00
47240;BME280;32978;53.586;10.052;2024-01-10T12:55:31;103401.84;;;-1.98;100.00
47240;BME280;32978;53.586;10.052;2024-01-10T13:00:28;103396.78;;;-1.77;100.00
47240;BME280;32978;53.586;10.052;2024-01-10T13:05:25;103383.84;;;-1.65;100.00
47240;BME280;32978;53.586;10.052;2024-01-10T13:10:22;103384.16;;;-1.52;100.00
47240;BME280;32978;53.586;10.052;2024-01-10T13:15:18;103381.88;;;-1.79;100.00
47240;BME280;32978;53.586;10.052;2024-01-10T13:20:15;103387.03;;;-1.53;100.00
47240;BME280;32978;53.586;10.052;2024-01-10T13:25:12;103393.19;;;-1.36;100.00
47240;BME280;32978;53.586;10.052;2024-01-10T13:30:09;103382.94;;;-1.33;100.00
47240;BME280;32978;53.586;10.052;2024-01-10T13:35:09;103379.03;;;-1.22;100.00
47240;BME280;32978;53.586;10.052;2024-01-10T13:40:07;103375.34;;;-1.21;100.00
47240;BME280;32978;53.586;10.052;2024-01-10T13:45:05;103371.09;;;-1.63;100.00
47240;BME280;32978;53.586;10.052;2024-01-10T13:50:02;103369.09;;;-1.61;100.00
47240;BME280;32978;53.586;10.052;2024-01-10T13:55:00;103372.97;;;-1.55;100.00
47240;BME280;32978;53.586;10.052;2024-01-10T13:59:57;103367.06;;;-1.59;100.00
47240;BME280;32978;53.586;10.052;2024-01-10T14:04:53;103374.16;;;-1.74;100.00
47240;BME280;32978;53.586;10.052;2024-01-10T14:09:56;103375.84;;;-1.81;100.00
47240;BME280;32978;53.586;10.052;2024-01-10T14:14:52;103365.09;;;-1.73;100.00
47240;BME280;32978;53.586;10.052;2024-01-10T14:19:51;103362.78;;;-1.84;100.00
47240;BME280;32978;53.586;10.052;2024-01-10T14:24:47;103357.56;;;-1.78;100.00
47240;BME280;32978;53.586;10.052;2024-01-10T14:29:44;103367.16;;;-1.92;100.00
47240;BME280;32978;53.586;10.052;2024-01-10T14:34:40;103366.16;;;-1.99;100.00
47240;BME280;32978;53.586;10.052;2024-01-10T14:39:37;103359.78;;;-2.14;100.00
47240;BME280;32978;53.586;10.052;2024-01-10T14:44:35;103362.78;;;-2.25;100.00
47240;BME280;32978;53.586;10.052;2024-01-10T14:49:32;103365.16;;;-2.39;100.00
47240;BME280;32978;53.586;10.052;2024-01-10T14:54:28;103370.50;;;-2.55;100.00
47240;BME280;32978;53.586;10.052;2024-01-10T14:59:25;103369.50;;;-2.46;100.00
47240;BME280;32978;53.586;10.052;2024-01-10T15:04:39;103377.19;;;-2.35;100.00
47240;BME280;32978;53.586;10.052;2024-01-10T15:09:37;103378.53;;;-2.47;100.00
47240;BME280;32978;53.586;10.052;2024-01-10T15:14:34;103385.56;;;-2.38;100.00
47240;BME280;32978;53.586;10.052;2024-01-10T15:19:40;103386.25;;;-2.36;100.00
47240;BME280;32978;53.586;10.052;2024-01-10T15:24:37;103383.22;;;-2.41;100.00
47240;BME280;32978;53.586;10.052;2024-01-10T15:29:34;103383.84;;;-2.63;100.00
47240;BME280;32978;53.586;10.052;2024-01-10T15:34:33;103396.56;;;-2.65;100.00
47240;BME280;32978;53.586;10.052;2024-01-10T15:39:29;103393.34;;;-2.77;100.00
47240;BME280;32978;53.586;10.052;2024-01-10T15:44:26;103401.88;;;-2.82;100.00
47240;BME280;32978;53.586;10.052;2024-01-10T15:49:23;103395.50;;;-2.89;100.00
47240;BME280;32978;53.586;10.052;2024-01-10T15:54:20;103394.81;;;-2.91;100.00
47240;BME280;32978;53.586;10.052;2024-01-10T15:59:19;103392.72;;;-3.13;100.00
47240;BME280;32978;53.586;10.052;2024-01-10T16:04:16;103389.81;;;-2.94;100.00
47240;BME280;32978;53.586;10.052;2024-01-10T16:09:13;103383.13;;;-2.90;100.00
47240;BME280;32978;53.586;10.052;2024-01-10T16:14:10;103371.38;;;-2.97;100.00
47240;BME280;32978;53.586;10.052;2024-01-10T16:19:06;103373.69;;;-3.02;100.00
47240;BME280;32978;53.586;10.052;2024-01-10T16:24:03;103367.06;;;-2.90;100.00
47240;BME280;32978;53.586;10.052;2024-01-10T16:29:00;103362.22;;;-2.86;100.00
47240;BME280;32978;53.586;10.052;2024-01-10T16:33:56;103367.06;;;-2.90;100.00
47240;BME280;32978;53.586;10.052;2024-01-10T16:38:53;103367.56;;;-2.86;100.00
47240;BME280;32978;53.586;10.052;2024-01-10T16:43:51;103371.09;;;-2.78;100.00
47240;BME280;32978;53.586;10.052;2024-01-10T16:48:48;103366.59;;;-2.77;100.00
47240;BME280;32978;53.586;10.052;2024-01-10T16:53:45;103366.78;;;-2.70;100.00
47240;BME280;32978;53.586;10.052;2024-01-10T16:58:41;103370.63;;;-2.65;100.00
47240;BME280;32978;53.586;10.052;2024-01-10T17:03:38;103363.06;;;-2.69;100.00
47240;BME280;32978;53.586;10.052;2024-01-10T17:08:35;103359.59;;;-2.62;100.00
47240;BME280;32978;53.586;10.052;2024-01-10T17:13:31;103362.72;;;-2.83;100.00
47240;BME280;32978;53.586;10.052;2024-01-10T17:18:28;103356.06;;;-2.70;100.00
47240;BME280;32978;53.586;10.052;2024-01-10T17:23:25;103360.22;;;-2.84;100.00
47240;BME280;32978;53.586;10.052;2024-01-10T17:28:21;103357.00;;;-2.88;100.00
47240;BME280;32978;53.586;10.052;2024-01-10T17:33:18;103358.41;;;-2.76;100.00
47240;BME280;32978;53.586;10.052;2024-01-10T17:38:18;103358.69;;;-2.87;100.00
47240;BME280;32978;53.586;10.052;2024-01-10T17:43:14;103359.75;;;-2.71;100.00
47240;BME280;32978;53.586;10.052;2024-01-10T17:48:11;103346.69;;;-2.66;100.00
47240;BME280;32978;53.586;10.052;2024-01-10T17:53:10;103351.03;;;-2.73;100.00
47240;BME280;32978;53.586;10.052;2024-01-10T17:58:07;103347.34;;;-2.72;100.00
47240;BME280;32978;53.586;10.052;2024-01-10T18:03:04;103352.34;;;-2.69;100.00
47240;BME280;32978;53.586;10.052;2024-01-10T18:08:01;103348.66;;;-2.77;100.00
47240;BME280;32978;53.586;10.052;2024-01-10T18:12:57;103354.69;;;-2.75;100.00
47240;BME280;32978;53.586;10.052;2024-01-10T18:17:58;103348.28;;;-2.98;100.00
47240;BME280;32978;53.586;10.052;2024-01-10T18:22:55;103350.81;;;-2.97;100.00
47240;BME280;32978;53.586;10.052;2024-01-10T18:27:51;103354.16;;;-2.94;100.00
47240;BME280;32978;53.586;10.052;2024-01-10T18:32:47;103351.03;;;-2.73;100.00
47240;BME280;32978;53.586;10.052;2024-01-10T18:37:47;103356.56;;;-2.67;100.00
47240;BME280;32978;53.586;10.052;2024-01-10T18:42:47;103350.03;;;-2.81;100.00
47240;BME280;32978;53.586;10.052;2024-01-10T18:47:43;103348.00;;;-2.79;100.00
47240;BME280;32978;53.586;10.052;2024-01-10T18:52:40;103342.97;;;-2.82;100.00
47240;BME280;32978;53.586;10.052;2024-01-10T18:57:37;103336.97;;;-2.76;100.00
47240;BME280;32978;53.586;10.052;2024-01-10T19:02:34;103356.03;;;-2.79;100.00
47240;BME280;32978;53.586;10.052;2024-01-10T19:07:31;103357.56;;;-2.76;100.00
47240;BME280;32978;53.586;10.052;2024-01-10T19:12:27;103349.84;;;-2.87;100.00
47240;BME280;32978;53.586;10.052;2024-01-10T19:17:24;103345.31;;;-2.87;100.00
47240;BME280;32978;53.586;10.052;2024-01-10T19:22:20;103363.91;;;-2.85;100.00
47240;BME280;32978;53.586;10.052;2024-01-10T19:27:18;103364.91;;;-2.78;100.00
47240;BME280;32978;53.586;10.052;2024-01-10T19:32:14;103353.69;;;-2.82;100.00
47240;BME280;32978;53.586;10.052;2024-01-10T19:37:11;103367.75;;;-2.80;100.00
47240;BME280;32978;53.586;10.052;2024-01-10T19:42:07;103354.31;;;-2.88;100.00
47240;BME280;32978;53.586;10.052;2024-01-10T19:47:04;103360.06;;;-2.83;100.00
47240;BME280;32978;53.586;10.052;2024-01-10T19:52:03;103359.00;;;-2.98;100.00
47240;BME280;32978;53.586;10.052;2024-01-10T19:56:59;103360.41;;;-2.78;100.00
47240;BME280;32978;53.586;10.052;2024-01-10T20:01:56;103359.56;;;-2.70;100.00
47240;BME280;32978;53.586;10.052;2024-01-10T20:06:52;103365.22;;;-2.81;100.00
47240;BME280;32978;53.586;10.052;2024-01-10T20:11:49;103363.44;;;-2.64;100.00
47240;BME280;32978;53.586;10.052;2024-01-10T20:16:46;103362.75;;;-2.66;100.00
47240;BME280;32978;53.586;10.052;2024-01-10T20:21:43;103371.78;;;-2.76;100.00
47240;BME280;32978;53.586;10.052;2024-01-10T20:26:39;103371.75;;;-2.84;100.00
47240;BME280;32978;53.586;10.052;2024-01-10T20:31:36;103372.72;;;-2.93;100.00
47240;BME280;32978;53.586;10.052;2024-01-10T20:36:32;103380.47;;;-2.82;100.00
47240;BME280;32978;53.586;10.052;2024-01-10T20:41:30;103390.69;;;-2.77;100.00
47240;BME280;32978;53.586;10.052;2024-01-10T20:46:27;103396.56;;;-2.73;100.00
47240;BME280;32978;53.586;10.052;2024-01-10T20:51:25;103388.34;;;-2.80;100.00
47240;BME280;32978;53.586;10.052;2024-01-10T20:56:21;103394.38;;;-2.70;100.00
47240;BME280;32978;53.586;10.052;2024-01-10T21:01:18;103390.53;;;-2.76;100.00
47240;BME280;32978;53.586;10.052;2024-01-10T21:06:15;103386.53;;;-2.71;100.00
47240;BME280;32978;53.586;10.052;2024-01-10T21:11:15;103406.59;;;-2.67;100.00
47240;BME280;32978;53.586;10.052;2024-01-10T21:16:12;103397.56;;;-2.75;100.00
47240;BME280;32978;53.586;10.052;2024-01-10T21:21:08;103388.19;;;-2.70;100.00
47240;BME280;32978;53.586;10.052;2024-01-10T21:26:05;103391.88;;;-2.63;100.00
47240;BME280;32978;53.586;10.052;2024-01-10T21:31:02;103394.91;;;-2.66;100.00
47240;BME280;32978;53.586;10.052;2024-01-10T21:35:58;103390.03;;;-3.22;100.00
47240;BME280;32978;53.586;10.052;2024-01-10T21:40:55;103399.75;;;-3.12;100.00
47240;BME280;32978;53.586;10.052;2024-01-10T21:45:51;103389.47;;;-2.99;100.00
47240;BME280;32978;53.586;10.052;2024-01-10T21:50:48;103384.50;;;-2.69;100.00
47240;BME280;32978;53.586;10.052;2024-01-10T21:55:46;103381.22;;;-2.55;100.00
47240;BME280;32978;53.586;10.052;2024-01-10T22:00:43;103375.66;;;-2.54;100.00
47240;BME280;32978;53.586;10.052;2024-01-10T22:05:39;103393.41;;;-2.61;100.00
47240;BME280;32978;53.586;10.052;2024-01-10T22:10:36;103397.69;;;-2.84;100.00
47240;BME280;32978;53.586;10.052;2024-01-10T22:15:33;103393.34;;;-2.77;100.00
47240;BME280;32978;53.586;10.052;2024-01-10T22:20:29;103396.91;;;-2.68;100.00
47240;BME280;32978;53.586;10.052;2024-01-10T22:25:26;103404.59;;;-2.73;100.00
47240;BME280;32978;53.586;10.052;2024-01-10T22:30:23;103407.63;;;-2.60;100.00
47240;BME280;32978;53.586;10.052;2024-01-10T22:35:20;103403.88;;;-2.92;100.00
47240;BME280;32978;53.586;10.052;2024-01-10T22:40:17;103398.91;;;-2.70;100.00
47240;BME280;32978;53.586;10.052;2024-01-10T22:45:14;103403.44;;;-2.63;100.00
47240;BME280;32978;53.586;10.052;2024-01-10T22:50:10;103420.66;;;-2.73;100.00
47240;BME280;32978;53.586;10.052;2024-01-10T22:55:07;103409.72;;;-2.97;100.00
47240;BME280;32978;53.586;10.052;2024-01-10T23:00:04;103393.22;;;-2.67;100.00
47240;BME280;32978;53.586;10.052;2024-01-10T23:05:06;103396.91;;;-2.68;100.00
47240;BME280;32978;53.586;10.052;2024-01-10T23:10:04;103408.94;;;-2.72;100.00
47240;BME280;32978;53.586;10.052;2024-01-10T23:15:00;103390.22;;;-2.56;100.00
47240;BME280;32978;53.586;10.052;2024-01-10T23:19:57;103415.66;;;-2.60;100.00
47240;BME280;32978;53.586;10.052;2024-01-10T23:24:54;103391.25;;;-2.49;100.00
47240;BME280;32978;53.586;10.052;2024-01-10T23:29:50;103393.94;;;-2.57;100.00
47240;BME280;32978;53.586;10.052;2024-01-10T23:34:47;103375.19;;;-2.41;100.00
47240;BME280;32978;53.586;10.052;2024-01-10T23:39:43;103365.66;;;-2.43;100.00
47240;BME280;32978;53.586;10.052;2024-01-10T23:44:40;103366.47;;;-2.43;100.00
47240;BME280;32978;53.586;10.052;2024-01-10T23:49:36;103363.44;;;-2.56;100.00
47240;BME280;32978;53.586;10.052;2024-01-10T23:54:33;103336.16;;;-2.60;100.00
47240;BME280;32978;53.586;10.052;2024-01-10T23:59:30;103323.78;;;-2.36;100.00
